createdAt,value
2022-09-03T00:02:28.324Z,15.58
2022-09-03T00:05:17.219Z,15.71
2022-09-03T00:07:57.764Z,15.77
2022-09-03T00:10:53.444Z,15.71
2022-09-03T00:13:37.492Z,15.65
2022-09-03T00:16:12.340Z,15.60
2022-09-03T00:18:49.822Z,15.46
2022-09-03T00:21:34.379Z,15.58
2022-09-03T00:24:14.494Z,15.55
2022-09-03T00:26:54.640Z,15.63
2022-09-03T00:29:25.644Z,15.39
2022-09-03T00:32:07.044Z,15.46
2022-09-03T00:34:41.531Z,15.67
2022-09-03T00:37:15.470Z,15.42
2022-09-03T00:39:44.191Z,15.52
2022-09-03T00:42:31.081Z,15.46
2022-09-03T01:25:41.777Z,15.16
2022-09-03T01:29:14.719Z,15.07
2022-09-03T01:55:27.790Z,14.87
2022-09-03T01:58:02.730Z,14.97
2022-09-03T02:00:34.550Z,15.14
2022-09-03T02:03:07.790Z,14.84
2022-09-03T02:05:44.056Z,14.59
2022-09-03T02:08:11.631Z,14.77
2022-09-03T02:10:52.690Z,14.85
2022-09-03T02:13:55.453Z,14.83
2022-09-03T02:16:38.544Z,14.88
2022-09-03T02:19:18.308Z,14.74
2022-09-03T02:26:04.505Z,14.79
2022-09-03T02:28:41.067Z,14.62
2022-09-03T02:34:28.230Z,14.48
2022-09-03T02:39:56.750Z,14.42
2022-09-03T02:48:45.345Z,14.80
2022-09-03T02:51:42.674Z,14.90
2022-09-03T02:58:19.534Z,14.69
2022-09-03T03:00:49.399Z,14.51
2022-09-03T03:03:17.369Z,14.49
2022-09-03T03:08:45.810Z,14.21
2022-09-03T03:11:18.556Z,14.39
2022-09-03T03:13:46.725Z,14.35
2022-09-03T03:16:22.018Z,14.32
2022-09-03T03:19:15.398Z,14.36
2022-09-03T03:21:48.602Z,14.43
2022-09-03T03:24:17.393Z,14.32
2022-09-03T03:27:10.705Z,14.32
2022-09-03T03:30:07.004Z,14.46
2022-09-03T03:32:43.240Z,14.39
2022-09-03T03:38:30.321Z,14.15
2022-09-03T03:41:43.281Z,14.26
2022-09-03T03:50:49.196Z,14.25
2022-09-03T03:53:20.550Z,14.22
2022-09-03T03:56:15.337Z,14.17
2022-09-03T04:16:28.014Z,14.02
2022-09-03T04:29:19.107Z,13.89
2022-09-03T04:32:11.320Z,13.74
2022-09-03T04:34:39.459Z,13.69
2022-09-03T04:37:07.417Z,13.72
2022-09-03T04:39:35.444Z,13.66
2022-09-03T04:42:03.477Z,13.64
2022-09-03T04:44:31.410Z,13.70
2022-09-03T04:47:04.430Z,13.66
2022-09-03T04:53:08.346Z,13.70
2022-09-03T04:55:36.884Z,13.69
2022-09-03T04:58:07.783Z,13.74
2022-09-03T05:00:45.861Z,13.80
2022-09-03T05:06:21.649Z,13.98
2022-09-03T05:08:59.091Z,13.86
2022-09-03T05:11:36.297Z,13.97
2022-09-03T05:17:10.319Z,13.95
2022-09-03T05:22:36.654Z,13.97
2022-09-03T05:25:05.823Z,14.14
2022-09-03T05:27:42.381Z,14.10
2022-09-03T05:30:10.450Z,14.17
2022-09-03T05:35:47.331Z,14.14
2022-09-03T05:38:19.797Z,14.11
2022-09-03T05:40:55.460Z,14.24
2022-09-03T05:43:57.152Z,14.24
2022-09-03T05:46:58.668Z,14.28
2022-09-03T06:00:59.966Z,14.56
2022-09-03T06:03:44.465Z,14.67
2022-09-03T06:06:17.959Z,14.73
2022-09-03T06:11:44.544Z,14.91
2022-09-03T06:14:25.279Z,14.87
2022-09-03T06:16:53.655Z,15.00
2022-09-03T06:19:22.098Z,15.18
2022-09-03T06:22:04.348Z,15.14
2022-09-03T06:24:36.376Z,15.22
2022-09-03T06:29:59.639Z,15.29
2022-09-03T06:32:40.892Z,15.39
2022-09-03T06:35:09.704Z,15.36
2022-09-03T06:40:26.167Z,15.52
2022-09-03T06:43:18.500Z,15.66
2022-09-03T06:49:01.193Z,15.83
2022-09-03T06:51:39.931Z,15.91
2022-09-03T06:54:18.501Z,16.00
2022-09-03T06:56:45.328Z,15.94
2022-09-03T06:59:14.796Z,16.03
2022-09-03T07:01:46.283Z,16.24
2022-09-03T07:04:20.356Z,16.29
2022-09-03T07:07:20.769Z,16.45
2022-09-03T07:12:49.631Z,16.52
2022-09-03T07:15:20.071Z,16.53
2022-09-03T07:17:47.435Z,16.45
2022-09-03T07:20:22.329Z,16.41
2022-09-03T07:23:10.700Z,16.64
2022-09-03T07:34:41.877Z,16.87
2022-09-03T07:37:46.325Z,17.01
2022-09-03T07:40:14.216Z,17.19
2022-09-03T07:48:57.103Z,17.52
2022-09-03T07:51:29.481Z,17.76
2022-09-03T07:57:17.888Z,17.89
2022-09-03T07:59:45.290Z,17.94
2022-09-03T08:05:05.857Z,18.26
2022-09-03T08:10:16.604Z,18.69
2022-09-03T08:12:43.285Z,18.49
2022-09-03T08:15:18.795Z,19.08
2022-09-03T08:17:51.140Z,18.67
2022-09-03T08:20:20.652Z,19.30
2022-09-03T08:23:14.669Z,19.58
2022-09-03T08:25:52.323Z,18.88
2022-09-03T08:31:38.717Z,19.14
2022-09-03T08:34:08.020Z,19.51
2022-09-03T08:39:30.239Z,20.08
2022-09-03T08:42:26.485Z,20.01
2022-09-03T08:45:13.001Z,20.13
2022-09-03T08:47:48.648Z,20.62
2022-09-03T08:53:17.655Z,20.21
2022-09-03T08:56:07.415Z,20.44
2022-09-03T08:58:48.902Z,20.46
2022-09-03T09:11:37.734Z,21.58
2022-09-03T09:15:19.692Z,21.49
2022-09-03T09:18:03.149Z,21.65
2022-09-03T09:23:32.850Z,20.94
2022-09-03T09:26:33.629Z,21.92
2022-09-03T09:29:09.524Z,22.18
2022-09-03T09:31:39.873Z,21.26
2022-09-03T09:46:42.660Z,22.14
2022-09-03T09:49:38.717Z,22.71
2022-09-03T09:55:10.508Z,21.72
2022-09-03T09:57:43.320Z,21.94
2022-09-03T10:00:16.186Z,22.25
2022-09-03T10:02:57.141Z,22.09
2022-09-03T10:05:37.120Z,21.97
2022-09-03T10:08:21.712Z,22.35
2022-09-03T10:10:58.193Z,21.86
2022-09-03T10:38:55.504Z,22.79
2022-09-03T10:53:31.976Z,21.66
2022-09-03T10:59:29.662Z,21.73
2022-09-03T11:03:06.682Z,22.78
2022-09-03T11:31:51.439Z,22.64
2022-09-03T11:35:09.622Z,22.58
2022-09-03T11:55:01.358Z,21.79
2022-09-03T12:22:17.759Z,22.07
2022-09-03T12:41:35.328Z,21.90
2022-09-03T12:47:40.455Z,22.21
2022-09-03T12:53:14.644Z,22.21
2022-09-03T12:56:16.851Z,21.93
2022-09-03T13:22:24.211Z,22.34
2022-09-03T13:41:46.556Z,22.09
2022-09-03T15:08:12.397Z,22.07
2022-09-03T15:11:01.385Z,22.17
2022-09-03T15:13:52.173Z,22.16
2022-09-03T15:16:56.571Z,22.07
2022-09-03T17:51:52.203Z,20.17
2022-09-03T18:06:57.579Z,19.83
2022-09-03T18:09:42.715Z,19.89
2022-09-03T18:15:25.482Z,19.73
2022-09-03T18:17:59.123Z,19.77
2022-09-03T18:21:24.357Z,19.53
2022-09-03T18:24:34.098Z,19.60
2022-09-03T18:27:34.759Z,19.56
2022-09-03T18:30:37.618Z,19.41
2022-09-03T18:36:33.940Z,19.23
2022-09-03T18:39:45.645Z,19.23
2022-09-03T18:43:26.211Z,19.18
2022-09-03T18:50:00.237Z,18.90
2022-09-03T18:53:00.344Z,18.76
2022-09-03T18:56:14.418Z,18.76
2022-09-03T18:59:24.698Z,18.67
2022-09-03T19:02:48.000Z,18.59
2022-09-03T19:05:58.769Z,18.56
2022-09-03T19:09:02.768Z,18.49
2022-09-03T19:11:56.941Z,18.39
2022-09-03T19:15:10.748Z,18.33
2022-09-03T19:18:28.669Z,18.20
2022-09-03T19:21:29.835Z,18.28
2022-09-03T19:24:21.061Z,18.14
2022-09-03T19:27:50.584Z,18.10
2022-09-03T19:30:39.730Z,17.87
2022-09-03T19:33:33.937Z,17.90
2022-09-03T19:36:26.246Z,17.93
2022-09-03T19:39:27.143Z,17.91
2022-09-03T19:42:26.393Z,17.96
2022-09-03T19:45:33.525Z,17.82
2022-09-03T19:48:48.393Z,17.70
2022-09-03T19:51:40.125Z,17.62
2022-09-03T19:54:27.806Z,17.56
2022-09-03T19:57:24.752Z,17.57
2022-09-03T20:00:11.801Z,17.46
2022-09-03T20:03:07.084Z,17.46
2022-09-03T20:05:55.918Z,17.39
2022-09-03T20:08:43.558Z,17.39
2022-09-03T20:11:18.817Z,17.34
2022-09-03T20:14:05.953Z,17.28
2022-09-03T20:16:45.502Z,17.17
2022-09-03T20:19:25.950Z,17.17
2022-09-03T20:22:24.526Z,17.11
2022-09-03T20:28:04.918Z,17.08
2022-09-03T20:31:42.506Z,17.01
2022-09-03T20:34:39.973Z,16.97
2022-09-03T20:37:36.377Z,17.00
2022-09-03T20:40:11.780Z,16.86
2022-09-03T20:43:10.725Z,16.86
2022-09-03T20:46:06.139Z,16.87
2022-09-03T20:48:58.070Z,16.86
2022-09-03T20:51:38.636Z,16.70
2022-09-03T20:54:33.707Z,16.72
2022-09-03T20:57:27.355Z,16.66
2022-09-03T21:00:15.219Z,16.62
2022-09-03T21:03:03.673Z,16.59
2022-09-03T21:05:57.845Z,16.59
2022-09-03T21:09:00.076Z,16.55
2022-09-03T21:12:03.053Z,16.69
2022-09-03T21:14:33.479Z,16.66
2022-09-03T21:17:04.984Z,16.64
2022-09-03T21:20:02.877Z,16.64
2022-09-03T21:22:40.908Z,16.62
2022-09-03T21:25:23.017Z,16.59
2022-09-03T21:28:42.840Z,16.51
2022-09-03T21:31:38.511Z,16.56
2022-09-03T21:34:22.731Z,16.53
2022-09-03T21:42:34.324Z,16.45
2022-09-03T21:45:20.294Z,16.52
2022-09-03T21:47:57.042Z,16.34
2022-09-03T21:51:29.900Z,16.45
2022-09-03T21:54:30.828Z,16.46
2022-09-03T22:06:31.546Z,16.28
2022-09-03T22:12:45.401Z,16.42
2022-09-03T22:15:18.689Z,16.34
2022-09-03T22:20:52.809Z,16.28
2022-09-03T22:23:55.552Z,15.98
2022-09-03T22:30:15.077Z,16.15
2022-09-03T22:33:19.953Z,16.10
2022-09-03T22:36:14.903Z,15.93
2022-09-03T22:39:09.767Z,15.96
2022-09-03T22:47:37.396Z,15.87
2022-09-03T22:50:29.147Z,15.90
2022-09-03T22:53:31.165Z,15.86
2022-09-03T22:57:02.569Z,15.79
2022-09-03T23:00:12.212Z,15.80
2022-09-03T23:29:02.447Z,15.87
2022-09-03T23:31:36.371Z,15.90
2022-09-03T23:37:10.233Z,15.77
2022-09-03T23:48:02.394Z,15.58
2022-09-03T23:54:38.463Z,15.49
2022-09-03T23:57:20.733Z,15.59
